Aviation Digital Data Service (ADDS)

Output produced by METARs form (1804 UTC 05 May 2016)
found at http://aviationweather.gov/adds/metars/
 
KLFT 051720Z 0518/0618 35012KT P6SM SKC 
     FM060000 VRB04KT P6SM SCT250